createdAt,value
2023-12-15T07:53:01.016Z,2789.3
2023-12-15T07:54:00.221Z,2957.6
2023-12-15T07:55:00.276Z,3118.7
2023-12-15T07:56:00.575Z,3279.7
2023-12-15T07:57:00.225Z,3430.4
2023-12-15T07:58:00.426Z,3581.1
2023-12-15T07:59:01.342Z,3731.7
2023-12-15T08:00:01.622Z,3900.9
2023-12-15T08:01:00.258Z,4070.0
2023-12-15T08:02:00.240Z,4244.3
2023-12-15T08:03:00.541Z,4418.7
2023-12-15T08:04:00.232Z,4593.0
2023-12-15T08:05:00.509Z,4771.5
2023-12-15T08:06:00.681Z,4950.1
2023-12-15T08:07:00.296Z,5116.3
2023-12-15T08:08:00.768Z,5282.6
2023-12-15T08:09:00.558Z,5448.9
2023-12-15T08:10:00.325Z,5630.5
2023-12-15T08:11:01.558Z,5812.2
2023-12-15T08:12:00.229Z,6036.1
2023-12-15T08:13:00.786Z,6259.9
2023-12-15T08:14:00.323Z,6483.8
2023-12-15T08:15:00.876Z,6729.3
2023-12-15T08:16:00.253Z,6974.7
2023-12-15T08:17:00.304Z,7249.2
2023-12-15T08:18:05.617Z,7523.7
2023-12-15T08:19:00.323Z,7798.1
2023-12-15T08:20:00.321Z,8089.7
2023-12-15T08:21:00.335Z,8381.2
2023-12-15T08:22:00.228Z,8728.9
2023-12-15T08:23:00.783Z,9076.7
2023-12-15T08:24:00.240Z,9424.4
2023-12-15T08:25:00.567Z,9794.3
2023-12-15T08:26:00.348Z,10164.1
2023-12-15T08:27:00.506Z,10572.3
2023-12-15T08:28:00.783Z,10980.5
2023-12-15T08:29:01.304Z,11388.7
2023-12-15T08:30:12.308Z,11748.8
2023-12-15T08:31:00.706Z,12108.9
2023-12-15T08:32:00.308Z,12496.1
2023-12-15T08:33:00.605Z,12883.4
2023-12-15T08:34:00.320Z,13270.7
2023-12-15T08:35:00.635Z,13643.3
2023-12-15T08:36:00.302Z,14015.9
2023-12-15T08:37:00.250Z,14310.5
2023-12-15T08:38:01.740Z,14605.2
2023-12-15T08:39:00.263Z,14899.9
2023-12-15T08:40:00.571Z,15281.4
2023-12-15T08:41:00.797Z,15662.9
2023-12-15T08:42:00.537Z,16133.3
2023-12-15T08:43:00.458Z,16603.7
2023-12-15T08:44:00.274Z,17074.1
2023-12-15T08:45:01.525Z,17608.1
2023-12-15T08:46:00.574Z,18142.1
2023-12-15T08:47:00.554Z,18345.7
2023-12-15T08:48:00.620Z,18549.3
2023-12-15T08:49:00.631Z,18752.9
2023-12-15T08:50:01.577Z,18985.5
2023-12-15T08:51:00.266Z,19218.0
2023-12-15T08:52:00.244Z,19618.7
2023-12-15T08:53:00.489Z,20019.5
2023-12-15T08:54:00.307Z,20420.2
2023-12-15T08:55:00.335Z,20813.9
2023-12-15T08:56:00.322Z,21207.5
2023-12-15T08:57:00.414Z,21233.3
2023-12-15T08:58:00.464Z,21259.0
2023-12-15T08:59:00.270Z,21284.7
2023-12-15T09:00:01.386Z,21773.3
2023-12-15T09:01:00.314Z,22261.9
2023-12-15T09:02:00.416Z,22838.9
2023-12-15T09:03:01.531Z,23415.9
2023-12-15T09:04:00.257Z,23992.9
2023-12-15T09:05:03.558Z,24542.1
2023-12-15T09:06:15.959Z,25091.2
2023-12-15T09:07:00.342Z,25852.5
2023-12-15T09:08:01.375Z,26613.7
2023-12-15T09:09:00.385Z,27375.0
2023-12-15T09:10:02.050Z,28377.6
2023-12-15T09:11:00.673Z,29380.2
2023-12-15T09:12:00.251Z,30897.2
2023-12-15T09:13:00.483Z,32414.2
2023-12-15T09:14:00.558Z,33931.2
2023-12-15T09:15:01.448Z,34685.2
2023-12-15T09:16:00.615Z,35439.2
2023-12-15T09:17:01.082Z,36711.1
2023-12-15T09:18:00.923Z,37982.9
2023-12-15T09:19:00.650Z,39254.8
2023-12-15T09:20:00.334Z,41029.7
2023-12-15T09:21:00.383Z,42804.5
2023-12-15T09:22:00.255Z,44506.9
2023-12-15T09:23:00.777Z,46209.2
2023-12-15T09:24:00.276Z,47911.5
2023-12-15T09:25:00.276Z,49665.0
2023-12-15T09:26:00.590Z,51418.5
2023-12-15T09:27:00.325Z,52797.5
2023-12-15T09:28:01.499Z,54176.5
2023-12-15T09:29:00.317Z,55555.5
2023-12-15T09:30:06.376Z,57202.3
2023-12-15T09:31:00.372Z,58849.2
2023-12-15T09:32:00.273Z,60061.4
2023-12-15T09:33:00.951Z,61273.6
2023-12-15T09:34:00.438Z,62485.8
2023-12-15T09:35:00.572Z,63211.2
2023-12-15T09:36:00.298Z,63936.6
2023-12-15T09:37:00.262Z,64359.3
2023-12-15T09:38:01.665Z,64781.9
2023-12-15T09:39:03.016Z,65204.6
2023-12-15T09:40:00.946Z,65005.2
2023-12-15T09:41:00.582Z,64805.8
2023-12-15T09:42:00.263Z,64473.5
2023-12-15T09:43:00.542Z,64141.3
2023-12-15T09:44:00.290Z,63809.0
2023-12-15T09:45:08.915Z,63247.9
2023-12-15T09:46:00.343Z,62686.7
2023-12-15T09:47:00.552Z,62448.8
2023-12-15T09:48:00.980Z,62210.9
2023-12-15T09:49:00.372Z,61972.9
2023-12-15T09:50:01.711Z,61764.7
2023-12-15T09:51:00.312Z,61556.5
2023-12-15T09:52:00.270Z,61149.3
2023-12-15T09:53:00.505Z,60742.0
2023-12-15T09:54:00.291Z,60334.7
2023-12-15T09:55:02.102Z,60184.5
2023-12-15T09:56:00.588Z,60034.3
2023-12-15T09:57:00.277Z,60155.1
2023-12-15T09:58:00.769Z,60275.8
2023-12-15T09:59:00.305Z,60396.5
2023-12-15T10:00:01.479Z,60957.7
2023-12-15T10:01:00.694Z,61518.8
2023-12-15T10:02:00.290Z,61821.6
2023-12-15T10:03:16.388Z,62124.4
2023-12-15T10:04:15.550Z,62427.2
2023-12-15T10:05:07.755Z,62603.8
2023-12-15T10:06:00.345Z,62780.4
2023-12-15T10:35:02.349Z,65535.0
2023-12-15T10:37:01.112Z,64941.5
2023-12-15T10:38:01.156Z,64743.7
2023-12-15T10:39:01.144Z,64644.8
2023-12-15T10:40:03.764Z,64002.2
2023-12-15T10:41:07.884Z,63573.8
2023-12-15T10:42:01.121Z,63854.0
2023-12-15T10:43:01.167Z,64064.1
2023-12-15T10:44:01.171Z,64227.6
2023-12-15T10:45:01.126Z,63870.2
2023-12-15T10:46:03.494Z,63577.8
2023-12-15T10:47:02.217Z,63576.3
2023-12-15T10:48:01.381Z,63574.9
2023-12-15T10:49:01.212Z,63573.8
2023-12-15T10:50:01.244Z,63704.5
2023-12-15T10:52:02.842Z,63502.3
2023-12-15T10:53:01.146Z,63300.1
2023-12-15T10:54:01.145Z,63097.9
2023-12-15T10:55:01.119Z,63110.3
2023-12-15T10:56:01.695Z,63122.7
2023-12-15T11:00:01.253Z,63448.1
2023-12-15T11:01:07.721Z,63773.5
2023-12-15T11:02:01.137Z,63893.1
2023-12-15T11:03:01.140Z,64012.7
2023-12-15T11:04:02.543Z,64132.3
2023-12-15T11:05:01.233Z,63725.8
2023-12-15T11:06:01.723Z,63319.3
2023-12-15T11:07:01.241Z,63519.1
2023-12-15T11:08:01.303Z,63718.9
2023-12-15T11:09:01.193Z,63918.7
2023-12-15T11:10:02.727Z,63643.9
2023-12-15T11:11:02.437Z,63369.1
2023-12-15T11:12:01.107Z,62916.5
2023-12-15T11:13:01.130Z,62463.9
2023-12-15T11:14:01.141Z,62011.3
2023-12-15T11:15:01.225Z,61842.1
2023-12-15T11:16:02.651Z,61673.0
2023-12-15T11:17:01.156Z,61599.3
2023-12-15T11:18:01.556Z,61525.5
2023-12-15T11:19:01.303Z,61451.8
2023-12-15T11:20:01.192Z,61836.8
2023-12-15T11:21:01.362Z,62221.8
2023-12-15T11:22:01.126Z,62303.3
2023-12-15T11:23:01.141Z,62384.9
2023-12-15T11:24:01.237Z,62466.4
2023-12-15T11:25:01.228Z,62882.8
2023-12-15T11:26:02.540Z,63299.2
2023-12-15T11:27:06.198Z,63285.7
2023-12-15T11:28:01.210Z,63272.1
2023-12-15T11:29:01.206Z,63258.6
2023-12-15T11:30:01.170Z,62879.9
2023-12-15T11:31:02.403Z,62501.3
2023-12-15T11:32:01.199Z,62020.3
2023-12-15T11:33:01.349Z,61539.4
2023-12-15T11:34:01.216Z,61058.5
2023-12-15T11:35:06.271Z,60343.9
2023-12-15T11:36:02.384Z,59629.4
2023-12-15T11:37:01.125Z,58838.2
2023-12-15T11:38:01.161Z,58047.0
2023-12-15T11:39:01.189Z,57255.8
2023-12-15T11:40:01.225Z,56629.0
2023-12-15T11:41:02.180Z,56002.2
2023-12-15T11:43:01.172Z,55916.8
2023-12-15T11:44:01.240Z,55831.4
2023-12-15T11:45:01.116Z,55995.4
2023-12-15T11:46:01.153Z,56241.1
2023-12-15T11:47:02.302Z,56632.6
2023-12-15T11:48:02.244Z,57043.1
2023-12-15T11:49:01.149Z,57453.7
2023-12-15T11:50:01.165Z,57667.9
2023-12-15T11:51:01.211Z,58051.5
2023-12-15T11:52:01.715Z,58375.3
2023-12-15T11:53:01.142Z,58754.3
2023-12-15T11:54:01.417Z,59133.3
2023-12-15T11:55:01.113Z,59552.8
2023-12-15T11:56:01.204Z,59927.4
2023-12-15T11:57:01.955Z,60230.7
2023-12-15T11:58:01.130Z,60339.1
2023-12-15T11:59:01.134Z,60447.6
2023-12-15T12:00:01.130Z,60174.9
2023-12-15T12:01:01.239Z,59902.1
2023-12-15T12:02:02.185Z,59402.3
2023-12-15T12:03:01.118Z,58902.5
2023-12-15T12:04:01.149Z,58402.7
2023-12-15T12:05:01.162Z,58169.9
2023-12-15T12:06:01.247Z,57937.1
2023-12-15T12:07:01.348Z,57837.5
2023-12-15T12:08:01.184Z,57737.8
2023-12-15T12:09:01.120Z,57638.1
2023-12-15T12:10:01.698Z,57577.5
2023-12-15T12:11:02.935Z,57516.8
2023-12-15T12:12:07.920Z,57532.7
2023-12-15T12:13:01.127Z,57548.7
2023-12-15T12:14:01.146Z,57564.6
2023-12-15T12:15:01.132Z,57354.2
2023-12-15T12:16:01.198Z,57143.8
2023-12-15T12:17:03.061Z,56679.3
2023-12-15T12:18:01.200Z,56214.7
2023-12-15T12:19:01.214Z,55750.2
2023-12-15T12:20:02.162Z,55212.4
2023-12-15T12:21:01.244Z,54674.6
2023-12-15T12:22:03.839Z,54301.5
2023-12-15T12:23:01.163Z,53928.3
2023-12-15T12:24:06.162Z,53555.2
2023-12-15T12:25:01.118Z,53453.3
2023-12-15T12:26:01.198Z,53351.3
2023-12-15T12:27:01.632Z,53138.8
2023-12-15T12:28:02.174Z,52926.3
2023-12-15T12:29:02.867Z,52713.7
2023-12-15T12:30:01.129Z,52604.9
2023-12-15T12:31:01.175Z,52496.0
2023-12-15T12:32:01.751Z,52684.3
2023-12-15T12:33:01.265Z,52872.5
2023-12-15T12:34:01.208Z,53060.8
2023-12-15T12:35:01.137Z,53249.5
2023-12-15T12:36:01.166Z,53438.1
2023-12-15T12:37:09.049Z,53294.2
2023-12-15T12:38:02.187Z,53150.3
2023-12-15T12:39:01.120Z,53006.3
2023-12-15T12:40:01.119Z,52127.7
2023-12-15T12:41:01.213Z,51249.0
2023-12-15T12:42:04.175Z,50556.6
2023-12-15T12:43:01.207Z,49864.2
2023-12-15T12:44:01.221Z,49171.8
2023-12-15T12:45:01.117Z,48853.4
2023-12-15T12:46:01.740Z,48535.0
2023-12-15T12:47:07.495Z,48366.7
2023-12-15T12:48:01.240Z,48198.5
2023-12-15T12:49:01.173Z,48030.2
2023-12-15T12:51:01.215Z,48964.7
2023-12-15T12:52:02.182Z,49636.8
2023-12-15T12:53:01.391Z,50403.4
2023-12-15T12:54:01.745Z,51170.0
2023-12-15T12:55:02.151Z,50804.3
2023-12-15T12:56:01.233Z,50822.6
2023-12-15T12:57:02.489Z,49985.5
2023-12-15T12:58:01.108Z,49067.4
2023-12-15T12:59:02.842Z,48149.3
2023-12-15T13:00:01.131Z,47307.3
2023-12-15T13:01:01.167Z,46345.7
2023-12-15T13:02:07.226Z,45595.9
2023-12-15T13:03:01.151Z,44734.3
2023-12-15T13:04:01.146Z,43872.6
2023-12-15T13:05:02.219Z,43346.6
2023-12-15T13:06:04.289Z,41720.0
2023-12-15T13:07:04.245Z,40014.9
2023-12-15T13:08:01.202Z,38309.9
2023-12-15T13:09:01.425Z,36604.8
2023-12-15T13:10:01.125Z,35884.3
2023-12-15T13:11:01.148Z,35163.9
2023-12-15T13:12:03.939Z,35374.2
2023-12-15T13:13:01.482Z,35584.5
2023-12-15T13:14:01.183Z,35794.9
2023-12-15T13:15:01.121Z,36181.2
2023-12-15T13:16:01.429Z,36567.5
2023-12-15T13:17:16.152Z,36603.4
2023-12-15T13:18:06.611Z,36639.3
2023-12-15T13:19:01.205Z,36675.1
2023-12-15T13:20:01.156Z,36593.1
2023-12-15T13:45:01.603Z,36516.0
2023-12-15T13:47:03.237Z,34612.7
2023-12-15T13:48:00.801Z,33661.0
2023-12-15T13:49:00.721Z,33090.0
2023-12-15T13:50:01.036Z,32781.3
2023-12-15T13:51:00.623Z,32560.9
2023-12-15T13:52:00.621Z,32337.1
2023-12-15T13:53:00.839Z,32163.1
2023-12-15T13:54:00.631Z,32023.9
2023-12-15T13:55:15.690Z,31414.4
2023-12-15T13:56:07.956Z,30906.4
2023-12-15T13:57:00.634Z,30879.2
2023-12-15T13:58:00.675Z,30855.8
2023-12-15T13:59:03.172Z,30835.5
2023-12-15T14:00:01.830Z,30273.3
2023-12-15T14:01:15.825Z,29711.0
2023-12-15T14:02:01.609Z,29186.5
2023-12-15T14:03:00.694Z,28662.1
2023-12-15T14:04:00.694Z,28137.6
